sensor_id;sensor_type;location;lat;lon;timestamp;P1;durP1;ratioP1;P2;durP2;ratioP2
4422;SDS011;2224;49.814;8.650;2022-12-07T00:01:04;19.60;;;13.00;;
4422;SDS011;2224;49.814;8.650;2022-12-07T00:03:31;18.05;;;11.95;;
4422;SDS011;2224;49.814;8.650;2022-12-07T00:05:59;15.90;;;11.67;;
4422;SDS011;2224;49.814;8.650;2022-12-07T00:08:25;17.15;;;12.70;;
4422;SDS011;2224;49.814;8.650;2022-12-07T00:10:51;18.03;;;11.33;;
4422;SDS011;2224;49.814;8.650;2022-12-07T00:13:16;14.80;;;12.20;;
4422;SDS011;2224;49.814;8.650;2022-12-07T00:15:42;17.80;;;12.97;;
4422;SDS011;2224;49.814;8.650;2022-12-07T00:18:07;17.43;;;12.57;;
4422;SDS011;2224;49.814;8.650;2022-12-07T00:20:33;17.30;;;11.80;;
4422;SDS011;2224;49.814;8.650;2022-12-07T00:22:58;22.00;;;12.63;;
4422;SDS011;2224;49.814;8.650;2022-12-07T00:25:23;17.13;;;12.40;;
4422;SDS011;2224;49.814;8.650;2022-12-07T00:27:49;18.73;;;13.00;;
4422;SDS011;2224;49.814;8.650;2022-12-07T00:30:14;16.40;;;11.90;;
4422;SDS011;2224;49.814;8.650;2022-12-07T00:32:40;17.37;;;13.03;;
4422;SDS011;2224;49.814;8.650;2022-12-07T00:35:05;15.87;;;12.07;;
4422;SDS011;2224;49.814;8.650;2022-12-07T00:37:30;21.80;;;13.10;;
4422;SDS011;2224;49.814;8.650;2022-12-07T00:39:56;18.03;;;12.83;;
4422;SDS011;2224;49.814;8.650;2022-12-07T00:42:21;16.63;;;13.80;;
4422;SDS011;2224;49.814;8.650;2022-12-07T00:44:46;16.67;;;13.27;;
4422;SDS011;2224;49.814;8.650;2022-12-07T00:47:12;17.53;;;12.07;;
4422;SDS011;2224;49.814;8.650;2022-12-07T00:49:37;17.77;;;12.83;;
4422;SDS011;2224;49.814;8.650;2022-12-07T00:52:02;17.40;;;12.40;;
4422;SDS011;2224;49.814;8.650;2022-12-07T00:54:28;15.53;;;11.50;;
4422;SDS011;2224;49.814;8.650;2022-12-07T00:56:53;20.07;;;12.90;;
4422;SDS011;2224;49.814;8.650;2022-12-07T00:59:18;18.70;;;13.00;;
4422;SDS011;2224;49.814;8.650;2022-12-07T01:01:44;16.63;;;13.50;;
4422;SDS011;2224;49.814;8.650;2022-12-07T01:04:09;16.90;;;13.03;;
4422;SDS011;2224;49.814;8.650;2022-12-07T01:06:34;18.43;;;12.50;;
4422;SDS011;2224;49.814;8.650;2022-12-07T01:09:00;19.77;;;13.80;;
4422;SDS011;2224;49.814;8.650;2022-12-07T01:11:27;20.57;;;13.30;;
4422;SDS011;2224;49.814;8.650;2022-12-07T01:13:54;16.02;;;11.77;;
4422;SDS011;2224;49.814;8.650;2022-12-07T01:16:20;17.95;;;12.60;;
4422;SDS011;2224;49.814;8.650;2022-12-07T01:18:47;15.95;;;11.50;;
4422;SDS011;2224;49.814;8.650;2022-12-07T01:21:15;18.10;;;13.48;;
4422;SDS011;2224;49.814;8.650;2022-12-07T01:23:42;16.42;;;11.63;;
4422;SDS011;2224;49.814;8.650;2022-12-07T01:26:09;19.03;;;13.57;;
4422;SDS011;2224;49.814;8.650;2022-12-07T01:28:36;19.58;;;12.75;;
4422;SDS011;2224;49.814;8.650;2022-12-07T01:31:03;16.50;;;12.50;;
4422;SDS011;2224;49.814;8.650;2022-12-07T01:33:32;16.67;;;12.50;;
4422;SDS011;2224;49.814;8.650;2022-12-07T01:36:08;18.58;;;13.40;;
4422;SDS011;2224;49.814;8.650;2022-12-07T01:38:38;16.42;;;12.45;;
4422;SDS011;2224;49.814;8.650;2022-12-07T01:41:03;19.33;;;13.47;;
4422;SDS011;2224;49.814;8.650;2022-12-07T01:43:29;19.77;;;13.57;;
4422;SDS011;2224;49.814;8.650;2022-12-07T01:45:55;18.67;;;12.20;;
4422;SDS011;2224;49.814;8.650;2022-12-07T01:48:32;18.23;;;12.03;;
4422;SDS011;2224;49.814;8.650;2022-12-07T01:51:00;15.70;;;11.65;;
4422;SDS011;2224;49.814;8.650;2022-12-07T01:53:28;19.45;;;13.75;;
4422;SDS011;2224;49.814;8.650;2022-12-07T01:55:54;18.33;;;13.30;;
4422;SDS011;2224;49.814;8.650;2022-12-07T01:58:20;16.65;;;12.13;;
4422;SDS011;2224;49.814;8.650;2022-12-07T02:00:46;18.07;;;12.50;;
4422;SDS011;2224;49.814;8.650;2022-12-07T02:05:50;19.48;;;12.80;;
4422;SDS011;2224;49.814;8.650;2022-12-07T02:08:16;18.80;;;13.07;;
4422;SDS011;2224;49.814;8.650;2022-12-07T02:10:42;15.60;;;12.07;;
4422;SDS011;2224;49.814;8.650;2022-12-07T02:13:19;20.83;;;13.03;;
4422;SDS011;2224;49.814;8.650;2022-12-07T02:15:59;17.90;;;11.45;;
4422;SDS011;2224;49.814;8.650;2022-12-07T02:24:44;20.23;;;13.10;;
4422;SDS011;2224;49.814;8.650;2022-12-07T02:30:19;18.42;;;12.70;;
4422;SDS011;2224;49.814;8.650;2022-12-07T02:32:48;15.68;;;11.75;;
4422;SDS011;2224;49.814;8.650;2022-12-07T02:35:19;19.15;;;12.15;;
4422;SDS011;2224;49.814;8.650;2022-12-07T02:37:55;19.92;;;12.50;;
4422;SDS011;2224;49.814;8.650;2022-12-07T02:40:43;14.75;;;11.45;;
4422;SDS011;2224;49.814;8.650;2022-12-07T02:43:26;14.93;;;11.25;;
4422;SDS011;2224;49.814;8.650;2022-12-07T02:45:54;18.88;;;13.30;;
4422;SDS011;2224;49.814;8.650;2022-12-07T02:48:25;18.83;;;12.85;;
4422;SDS011;2224;49.814;8.650;2022-12-07T02:50:52;17.02;;;12.48;;
4422;SDS011;2224;49.814;8.650;2022-12-07T02:56:01;18.25;;;12.05;;
4422;SDS011;2224;49.814;8.650;2022-12-07T02:58:32;16.40;;;11.07;;
4422;SDS011;2224;49.814;8.650;2022-12-07T03:07:07;17.10;;;12.30;;
4422;SDS011;2224;49.814;8.650;2022-12-07T03:12:53;19.58;;;13.70;;
4422;SDS011;2224;49.814;8.650;2022-12-07T03:18:18;18.13;;;11.80;;
4422;SDS011;2224;49.814;8.650;2022-12-07T03:20:45;19.27;;;13.65;;
4422;SDS011;2224;49.814;8.650;2022-12-07T03:23:12;21.58;;;13.70;;
4422;SDS011;2224;49.814;8.650;2022-12-07T03:25:39;17.87;;;12.53;;
4422;SDS011;2224;49.814;8.650;2022-12-07T03:28:06;20.88;;;13.00;;
4422;SDS011;2224;49.814;8.650;2022-12-07T03:33:04;18.90;;;12.05;;
4422;SDS011;2224;49.814;8.650;2022-12-07T03:35:39;17.05;;;12.35;;
4422;SDS011;2224;49.814;8.650;2022-12-07T03:43:14;17.13;;;11.73;;
4422;SDS011;2224;49.814;8.650;2022-12-07T03:45:42;15.80;;;12.13;;
4422;SDS011;2224;49.814;8.650;2022-12-07T03:51:40;20.30;;;12.48;;
4422;SDS011;2224;49.814;8.650;2022-12-07T03:56:49;18.00;;;11.60;;
4422;SDS011;2224;49.814;8.650;2022-12-07T03:59:15;15.07;;;12.77;;
4422;SDS011;2224;49.814;8.650;2022-12-07T04:01:42;19.13;;;12.30;;
4422;SDS011;2224;49.814;8.650;2022-12-07T04:04:08;19.73;;;12.93;;
4422;SDS011;2224;49.814;8.650;2022-12-07T04:06:34;21.03;;;13.60;;
4422;SDS011;2224;49.814;8.650;2022-12-07T04:08:59;19.00;;;12.47;;
4422;SDS011;2224;49.814;8.650;2022-12-07T04:11:24;18.10;;;12.07;;
4422;SDS011;2224;49.814;8.650;2022-12-07T04:13:50;21.30;;;14.03;;
4422;SDS011;2224;49.814;8.650;2022-12-07T04:16:34;18.83;;;13.30;;
4422;SDS011;2224;49.814;8.650;2022-12-07T04:18:59;16.80;;;11.67;;
4422;SDS011;2224;49.814;8.650;2022-12-07T04:21:24;18.70;;;12.00;;
4422;SDS011;2224;49.814;8.650;2022-12-07T04:23:50;23.27;;;13.27;;
4422;SDS011;2224;49.814;8.650;2022-12-07T04:26:15;19.97;;;12.17;;
4422;SDS011;2224;49.814;8.650;2022-12-07T04:28:40;16.43;;;12.63;;
4422;SDS011;2224;49.814;8.650;2022-12-07T04:31:05;17.80;;;13.20;;
4422;SDS011;2224;49.814;8.650;2022-12-07T04:33:31;19.87;;;13.10;;
4422;SDS011;2224;49.814;8.650;2022-12-07T04:35:56;19.23;;;11.97;;
4422;SDS011;2224;49.814;8.650;2022-12-07T04:38:21;18.10;;;12.40;;
4422;SDS011;2224;49.814;8.650;2022-12-07T04:40:47;18.60;;;13.33;;
4422;SDS011;2224;49.814;8.650;2022-12-07T04:43:12;18.37;;;12.47;;
4422;SDS011;2224;49.814;8.650;2022-12-07T04:45:37;18.43;;;12.47;;
4422;SDS011;2224;49.814;8.650;2022-12-07T04:48:03;18.10;;;12.03;;
4422;SDS011;2224;49.814;8.650;2022-12-07T04:50:28;18.20;;;11.53;;
4422;SDS011;2224;49.814;8.650;2022-12-07T04:52:53;17.90;;;12.10;;
4422;SDS011;2224;49.814;8.650;2022-12-07T04:55:19;17.27;;;11.27;;
4422;SDS011;2224;49.814;8.650;2022-12-07T04:57:44;16.33;;;11.27;;
4422;SDS011;2224;49.814;8.650;2022-12-07T05:00:09;16.07;;;11.47;;
4422;SDS011;2224;49.814;8.650;2022-12-07T05:02:35;17.63;;;12.00;;
4422;SDS011;2224;49.814;8.650;2022-12-07T05:05:00;21.23;;;13.07;;
4422;SDS011;2224;49.814;8.650;2022-12-07T05:07:25;21.47;;;12.70;;
4422;SDS011;2224;49.814;8.650;2022-12-07T05:09:51;17.00;;;12.93;;
4422;SDS011;2224;49.814;8.650;2022-12-07T05:12:16;18.17;;;13.77;;
4422;SDS011;2224;49.814;8.650;2022-12-07T05:14:41;21.23;;;13.67;;
4422;SDS011;2224;49.814;8.650;2022-12-07T05:17:07;15.83;;;11.50;;
4422;SDS011;2224;49.814;8.650;2022-12-07T05:19:32;24.30;;;13.37;;
4422;SDS011;2224;49.814;8.650;2022-12-07T05:21:57;18.83;;;12.30;;
4422;SDS011;2224;49.814;8.650;2022-12-07T05:24:23;20.57;;;11.87;;
4422;SDS011;2224;49.814;8.650;2022-12-07T05:26:48;21.60;;;13.30;;
4422;SDS011;2224;49.814;8.650;2022-12-07T05:29:14;18.97;;;12.40;;
4422;SDS011;2224;49.814;8.650;2022-12-07T05:31:41;20.63;;;12.80;;
4422;SDS011;2224;49.814;8.650;2022-12-07T05:34:06;17.60;;;12.10;;
4422;SDS011;2224;49.814;8.650;2022-12-07T05:36:32;20.60;;;12.17;;
4422;SDS011;2224;49.814;8.650;2022-12-07T05:38:57;13.63;;;10.87;;
4422;SDS011;2224;49.814;8.650;2022-12-07T05:41:23;21.97;;;12.67;;
4422;SDS011;2224;49.814;8.650;2022-12-07T05:44:07;18.23;;;11.88;;
4422;SDS011;2224;49.814;8.650;2022-12-07T05:46:32;15.63;;;11.47;;
4422;SDS011;2224;49.814;8.650;2022-12-07T05:48:58;15.17;;;11.00;;
4422;SDS011;2224;49.814;8.650;2022-12-07T05:51:23;18.93;;;13.20;;
4422;SDS011;2224;49.814;8.650;2022-12-07T05:53:48;15.57;;;12.13;;
4422;SDS011;2224;49.814;8.650;2022-12-07T05:56:14;19.00;;;12.00;;
4422;SDS011;2224;49.814;8.650;2022-12-07T05:58:39;17.60;;;12.37;;
4422;SDS011;2224;49.814;8.650;2022-12-07T06:01:23;18.48;;;12.07;;
4422;SDS011;2224;49.814;8.650;2022-12-07T06:03:48;17.07;;;11.70;;
4422;SDS011;2224;49.814;8.650;2022-12-07T06:06:13;18.53;;;12.33;;
4422;SDS011;2224;49.814;8.650;2022-12-07T06:08:39;17.60;;;12.00;;
4422;SDS011;2224;49.814;8.650;2022-12-07T06:11:04;18.70;;;12.60;;
4422;SDS011;2224;49.814;8.650;2022-12-07T06:13:48;17.80;;;12.00;;
4422;SDS011;2224;49.814;8.650;2022-12-07T06:16:13;19.70;;;12.60;;
4422;SDS011;2224;49.814;8.650;2022-12-07T06:18:38;17.13;;;11.67;;
4422;SDS011;2224;49.814;8.650;2022-12-07T06:21:04;18.10;;;12.13;;
4422;SDS011;2224;49.814;8.650;2022-12-07T06:23:29;15.00;;;12.40;;
4422;SDS011;2224;49.814;8.650;2022-12-07T06:25:54;16.80;;;12.60;;
4422;SDS011;2224;49.814;8.650;2022-12-07T06:28:20;16.20;;;12.40;;
4422;SDS011;2224;49.814;8.650;2022-12-07T06:30:45;17.17;;;12.67;;
4422;SDS011;2224;49.814;8.650;2022-12-07T06:33:10;16.63;;;12.53;;
4422;SDS011;2224;49.814;8.650;2022-12-07T06:35:36;19.97;;;12.63;;
4422;SDS011;2224;49.814;8.650;2022-12-07T06:38:01;16.10;;;11.33;;
4422;SDS011;2224;49.814;8.650;2022-12-07T06:40:27;16.30;;;10.50;;
4422;SDS011;2224;49.814;8.650;2022-12-07T06:42:52;14.37;;;12.17;;
4422;SDS011;2224;49.814;8.650;2022-12-07T06:45:17;17.10;;;12.67;;
4422;SDS011;2224;49.814;8.650;2022-12-07T06:47:42;17.50;;;12.70;;
4422;SDS011;2224;49.814;8.650;2022-12-07T06:50:08;18.10;;;11.90;;
4422;SDS011;2224;49.814;8.650;2022-12-07T06:52:33;16.10;;;11.83;;
4422;SDS011;2224;49.814;8.650;2022-12-07T06:54:59;19.33;;;12.50;;
4422;SDS011;2224;49.814;8.650;2022-12-07T06:57:24;21.23;;;11.03;;
4422;SDS011;2224;49.814;8.650;2022-12-07T06:59:50;18.43;;;12.57;;
4422;SDS011;2224;49.814;8.650;2022-12-07T07:02:15;19.73;;;14.10;;
4422;SDS011;2224;49.814;8.650;2022-12-07T07:04:40;19.77;;;13.00;;
4422;SDS011;2224;49.814;8.650;2022-12-07T07:07:06;15.47;;;11.47;;
4422;SDS011;2224;49.814;8.650;2022-12-07T07:09:31;18.57;;;12.57;;
4422;SDS011;2224;49.814;8.650;2022-12-07T07:11:56;18.33;;;12.37;;
4422;SDS011;2224;49.814;8.650;2022-12-07T07:14:21;15.50;;;10.70;;
4422;SDS011;2224;49.814;8.650;2022-12-07T07:16:47;14.17;;;11.73;;
4422;SDS011;2224;49.814;8.650;2022-12-07T07:19:12;16.20;;;11.90;;
4422;SDS011;2224;49.814;8.650;2022-12-07T07:21:37;16.63;;;11.77;;
4422;SDS011;2224;49.814;8.650;2022-12-07T07:24:03;18.30;;;13.10;;
4422;SDS011;2224;49.814;8.650;2022-12-07T07:26:28;17.30;;;12.93;;
4422;SDS011;2224;49.814;8.650;2022-12-07T07:28:55;18.55;;;12.20;;
4422;SDS011;2224;49.814;8.650;2022-12-07T07:31:20;16.90;;;12.97;;
4422;SDS011;2224;49.814;8.650;2022-12-07T07:33:46;17.07;;;12.00;;
4422;SDS011;2224;49.814;8.650;2022-12-07T07:36:11;18.90;;;13.03;;
4422;SDS011;2224;49.814;8.650;2022-12-07T07:38:37;19.77;;;12.80;;
4422;SDS011;2224;49.814;8.650;2022-12-07T07:41:02;20.27;;;14.07;;
4422;SDS011;2224;49.814;8.650;2022-12-07T07:43:27;14.83;;;11.73;;
4422;SDS011;2224;49.814;8.650;2022-12-07T07:45:53;17.30;;;12.70;;
4422;SDS011;2224;49.814;8.650;2022-12-07T07:48:18;15.43;;;12.40;;
4422;SDS011;2224;49.814;8.650;2022-12-07T07:50:44;22.30;;;12.60;;
4422;SDS011;2224;49.814;8.650;2022-12-07T07:53:09;18.33;;;12.20;;
4422;SDS011;2224;49.814;8.650;2022-12-07T07:55:35;16.48;;;12.30;;
4422;SDS011;2224;49.814;8.650;2022-12-07T07:58:01;17.60;;;12.10;;
4422;SDS011;2224;49.814;8.650;2022-12-07T08:00:26;16.47;;;12.70;;
4422;SDS011;2224;49.814;8.650;2022-12-07T08:02:51;21.97;;;13.33;;
4422;SDS011;2224;49.814;8.650;2022-12-07T08:05:17;16.97;;;13.00;;
4422;SDS011;2224;49.814;8.650;2022-12-07T08:07:42;18.63;;;13.13;;
4422;SDS011;2224;49.814;8.650;2022-12-07T08:10:09;18.13;;;11.93;;
4422;SDS011;2224;49.814;8.650;2022-12-07T08:12:39;19.38;;;13.05;;
4422;SDS011;2224;49.814;8.650;2022-12-07T08:15:26;20.27;;;13.32;;
4422;SDS011;2224;49.814;8.650;2022-12-07T08:17:52;18.00;;;11.45;;
4422;SDS011;2224;49.814;8.650;2022-12-07T08:20:18;22.00;;;14.50;;
4422;SDS011;2224;49.814;8.650;2022-12-07T08:22:43;20.60;;;13.23;;
4422;SDS011;2224;49.814;8.650;2022-12-07T08:25:09;20.83;;;14.60;;
4422;SDS011;2224;49.814;8.650;2022-12-07T08:27:34;18.90;;;14.10;;
4422;SDS011;2224;49.814;8.650;2022-12-07T08:29:59;20.83;;;13.97;;
4422;SDS011;2224;49.814;8.650;2022-12-07T08:32:25;16.93;;;11.77;;
4422;SDS011;2224;49.814;8.650;2022-12-07T08:34:51;20.30;;;13.90;;
4422;SDS011;2224;49.814;8.650;2022-12-07T08:37:17;22.55;;;13.63;;
4422;SDS011;2224;49.814;8.650;2022-12-07T08:39:42;21.90;;;14.17;;
4422;SDS011;2224;49.814;8.650;2022-12-07T08:42:07;23.90;;;12.90;;
4422;SDS011;2224;49.814;8.650;2022-12-07T08:44:33;19.17;;;13.20;;
4422;SDS011;2224;49.814;8.650;2022-12-07T08:46:59;19.20;;;13.30;;
4422;SDS011;2224;49.814;8.650;2022-12-07T08:49:36;23.73;;;15.15;;
4422;SDS011;2224;49.814;8.650;2022-12-07T08:52:06;20.60;;;14.45;;
4422;SDS011;2224;49.814;8.650;2022-12-07T08:54:33;21.83;;;14.33;;
4422;SDS011;2224;49.814;8.650;2022-12-07T08:56:59;19.65;;;13.75;;
4422;SDS011;2224;49.814;8.650;2022-12-07T08:59:24;17.80;;;12.57;;
4422;SDS011;2224;49.814;8.650;2022-12-07T09:01:50;21.17;;;12.87;;
4422;SDS011;2224;49.814;8.650;2022-12-07T09:04:15;18.10;;;13.73;;
4422;SDS011;2224;49.814;8.650;2022-12-07T09:06:41;22.07;;;14.30;;
4422;SDS011;2224;49.814;8.650;2022-12-07T09:09:06;18.10;;;12.77;;
4422;SDS011;2224;49.814;8.650;2022-12-07T09:11:33;19.65;;;12.38;;
4422;SDS011;2224;49.814;8.650;2022-12-07T09:13:58;21.73;;;13.10;;
4422;SDS011;2224;49.814;8.650;2022-12-07T09:16:23;21.67;;;13.70;;
4422;SDS011;2224;49.814;8.650;2022-12-07T09:18:48;16.80;;;12.83;;
4422;SDS011;2224;49.814;8.650;2022-12-07T09:21:14;19.23;;;13.20;;
4422;SDS011;2224;49.814;8.650;2022-12-07T09:23:40;20.93;;;14.53;;
4422;SDS011;2224;49.814;8.650;2022-12-07T09:26:07;20.00;;;13.90;;
4422;SDS011;2224;49.814;8.650;2022-12-07T09:28:33;18.67;;;13.80;;
4422;SDS011;2224;49.814;8.650;2022-12-07T09:30:58;18.87;;;13.50;;
4422;SDS011;2224;49.814;8.650;2022-12-07T09:33:24;18.70;;;13.20;;
4422;SDS011;2224;49.814;8.650;2022-12-07T09:35:50;19.17;;;13.50;;
4422;SDS011;2224;49.814;8.650;2022-12-07T09:38:15;15.45;;;12.40;;
4422;SDS011;2224;49.814;8.650;2022-12-07T09:40:41;17.93;;;13.13;;
4422;SDS011;2224;49.814;8.650;2022-12-07T09:43:21;18.47;;;13.47;;
4422;SDS011;2224;49.814;8.650;2022-12-07T09:45:48;19.30;;;13.37;;
4422;SDS011;2224;49.814;8.650;2022-12-07T09:48:17;20.07;;;13.50;;
4422;SDS011;2224;49.814;8.650;2022-12-07T09:50:44;22.60;;;13.90;;
4422;SDS011;2224;49.814;8.650;2022-12-07T09:53:14;20.10;;;12.97;;
4422;SDS011;2224;49.814;8.650;2022-12-07T09:55:44;19.17;;;13.80;;
4422;SDS011;2224;49.814;8.650;2022-12-07T09:58:12;19.70;;;12.93;;
4422;SDS011;2224;49.814;8.650;2022-12-07T10:00:44;18.33;;;12.50;;
4422;SDS011;2224;49.814;8.650;2022-12-07T10:03:10;21.43;;;13.87;;
4422;SDS011;2224;49.814;8.650;2022-12-07T10:05:46;17.70;;;13.13;;
4422;SDS011;2224;49.814;8.650;2022-12-07T10:08:13;17.13;;;12.80;;
4422;SDS011;2224;49.814;8.650;2022-12-07T10:10:40;17.90;;;13.07;;
4422;SDS011;2224;49.814;8.650;2022-12-07T10:13:07;20.77;;;14.60;;
4422;SDS011;2224;49.814;8.650;2022-12-07T10:15:45;19.10;;;13.73;;
4422;SDS011;2224;49.814;8.650;2022-12-07T10:18:26;18.70;;;13.57;;
4422;SDS011;2224;49.814;8.650;2022-12-07T10:23:38;18.40;;;12.60;;
4422;SDS011;2224;49.814;8.650;2022-12-07T10:29:21;18.40;;;13.17;;
4422;SDS011;2224;49.814;8.650;2022-12-07T10:34:48;18.57;;;14.33;;
4422;SDS011;2224;49.814;8.650;2022-12-07T10:39:52;17.43;;;12.60;;
4422;SDS011;2224;49.814;8.650;2022-12-07T10:42:22;20.15;;;13.05;;
4422;SDS011;2224;49.814;8.650;2022-12-07T10:53:27;19.40;;;12.60;;
4422;SDS011;2224;49.814;8.650;2022-12-07T11:01:21;27.93;;;16.33;;
4422;SDS011;2224;49.814;8.650;2022-12-07T11:14:34;17.90;;;12.97;;
4422;SDS011;2224;49.814;8.650;2022-12-07T11:17:14;19.07;;;12.70;;
4422;SDS011;2224;49.814;8.650;2022-12-07T11:31:42;21.90;;;13.90;;
4422;SDS011;2224;49.814;8.650;2022-12-07T11:37:25;16.33;;;8.40;;
4422;SDS011;2224;49.814;8.650;2022-12-07T11:39:56;10.93;;;8.40;;
4422;SDS011;2224;49.814;8.650;2022-12-07T11:42:26;9.37;;;7.17;;
4422;SDS011;2224;49.814;8.650;2022-12-07T11:44:56;9.63;;;6.53;;
4422;SDS011;2224;49.814;8.650;2022-12-07T11:47:30;6.20;;;5.03;;
4422;SDS011;2224;49.814;8.650;2022-12-07T11:53:19;11.93;;;6.80;;
4422;SDS011;2224;49.814;8.650;2022-12-07T11:55:51;9.03;;;6.17;;
4422;SDS011;2224;49.814;8.650;2022-12-07T12:06:39;8.50;;;6.30;;
4422;SDS011;2224;49.814;8.650;2022-12-07T12:09:11;6.70;;;5.40;;
4422;SDS011;2224;49.814;8.650;2022-12-07T12:25:24;5.90;;;5.30;;
4422;SDS011;2224;49.814;8.650;2022-12-07T12:27:52;8.10;;;6.00;;
4422;SDS011;2224;49.814;8.650;2022-12-07T12:30:24;7.40;;;5.90;;
4422;SDS011;2224;49.814;8.650;2022-12-07T12:32:51;6.90;;;5.73;;
4422;SDS011;2224;49.814;8.650;2022-12-07T12:35:26;9.50;;;5.90;;
4422;SDS011;2224;49.814;8.650;2022-12-07T12:40:41;13.67;;;10.00;;
4422;SDS011;2224;49.814;8.650;2022-12-07T12:43:39;15.80;;;11.23;;
4422;SDS011;2224;49.814;8.650;2022-12-07T12:51:56;17.83;;;11.73;;
4422;SDS011;2224;49.814;8.650;2022-12-07T12:54:24;13.77;;;10.93;;
4422;SDS011;2224;49.814;8.650;2022-12-07T13:15:50;11.10;;;8.27;;
4422;SDS011;2224;49.814;8.650;2022-12-07T13:18:24;12.17;;;9.00;;
4422;SDS011;2224;49.814;8.650;2022-12-07T13:29:07;5.70;;;5.10;;
4422;SDS011;2224;49.814;8.650;2022-12-07T13:34:46;5.40;;;4.07;;
4422;SDS011;2224;49.814;8.650;2022-12-07T13:37:24;11.07;;;5.50;;
4422;SDS011;2224;49.814;8.650;2022-12-07T13:39:56;5.50;;;4.30;;
4422;SDS011;2224;49.814;8.650;2022-12-07T13:42:32;8.70;;;4.07;;
4422;SDS011;2224;49.814;8.650;2022-12-07T13:44:59;6.20;;;5.10;;
4422;SDS011;2224;49.814;8.650;2022-12-07T13:47:49;6.43;;;5.60;;
4422;SDS011;2224;49.814;8.650;2022-12-07T13:50:28;9.37;;;4.37;;
4422;SDS011;2224;49.814;8.650;2022-12-07T13:52:54;5.40;;;4.30;;
4422;SDS011;2224;49.814;8.650;2022-12-07T13:55:20;8.33;;;5.87;;
4422;SDS011;2224;49.814;8.650;2022-12-07T13:57:47;7.83;;;5.77;;
4422;SDS011;2224;49.814;8.650;2022-12-07T14:00:16;12.07;;;5.30;;
4422;SDS011;2224;49.814;8.650;2022-12-07T14:03:04;5.30;;;4.80;;
4422;SDS011;2224;49.814;8.650;2022-12-07T14:05:48;8.87;;;5.70;;
4422;SDS011;2224;49.814;8.650;2022-12-07T14:08:29;9.60;;;4.70;;
4422;SDS011;2224;49.814;8.650;2022-12-07T14:10:55;8.63;;;5.13;;
4422;SDS011;2224;49.814;8.650;2022-12-07T14:15:55;8.53;;;5.53;;
4422;SDS011;2224;49.814;8.650;2022-12-07T14:18:38;5.80;;;5.00;;
4422;SDS011;2224;49.814;8.650;2022-12-07T14:21:13;7.40;;;4.73;;
4422;SDS011;2224;49.814;8.650;2022-12-07T14:23:39;7.50;;;5.00;;
4422;SDS011;2224;49.814;8.650;2022-12-07T14:26:15;6.23;;;5.30;;
4422;SDS011;2224;49.814;8.650;2022-12-07T14:28:44;6.00;;;5.07;;
4422;SDS011;2224;49.814;8.650;2022-12-07T14:31:10;8.03;;;4.50;;
4422;SDS011;2224;49.814;8.650;2022-12-07T14:33:38;7.23;;;5.40;;
4422;SDS011;2224;49.814;8.650;2022-12-07T14:36:10;6.30;;;4.80;;
4422;SDS011;2224;49.814;8.650;2022-12-07T14:38:36;7.93;;;5.20;;
4422;SDS011;2224;49.814;8.650;2022-12-07T14:41:02;6.50;;;4.57;;
4422;SDS011;2224;49.814;8.650;2022-12-07T14:43:47;9.50;;;5.33;;
4422;SDS011;2224;49.814;8.650;2022-12-07T14:46:13;6.57;;;4.70;;
4422;SDS011;2224;49.814;8.650;2022-12-07T14:48:38;6.53;;;5.20;;
4422;SDS011;2224;49.814;8.650;2022-12-07T14:51:04;9.77;;;4.60;;
4422;SDS011;2224;49.814;8.650;2022-12-07T14:53:34;8.13;;;4.13;;
4422;SDS011;2224;49.814;8.650;2022-12-07T14:56:02;8.23;;;4.77;;
4422;SDS011;2224;49.814;8.650;2022-12-07T14:58:30;7.50;;;4.40;;
4422;SDS011;2224;49.814;8.650;2022-12-07T15:00:55;6.40;;;4.10;;
4422;SDS011;2224;49.814;8.650;2022-12-07T15:03:20;6.20;;;3.60;;
4422;SDS011;2224;49.814;8.650;2022-12-07T15:05:46;4.63;;;4.03;;
4422;SDS011;2224;49.814;8.650;2022-12-07T15:08:11;6.20;;;3.70;;
4422;SDS011;2224;49.814;8.650;2022-12-07T15:10:37;6.03;;;3.70;;
4422;SDS011;2224;49.814;8.650;2022-12-07T15:13:04;5.90;;;3.27;;
4422;SDS011;2224;49.814;8.650;2022-12-07T15:15:48;5.60;;;3.30;;
4422;SDS011;2224;49.814;8.650;2022-12-07T15:18:15;6.07;;;3.33;;
4422;SDS011;2224;49.814;8.650;2022-12-07T15:20:40;3.70;;;3.30;;
4422;SDS011;2224;49.814;8.650;2022-12-07T15:23:06;5.47;;;3.20;;
4422;SDS011;2224;49.814;8.650;2022-12-07T15:25:31;5.10;;;3.43;;
4422;SDS011;2224;49.814;8.650;2022-12-07T15:27:57;4.90;;;4.30;;
4422;SDS011;2224;49.814;8.650;2022-12-07T15:30:22;4.67;;;3.87;;
4422;SDS011;2224;49.814;8.650;2022-12-07T15:32:51;7.57;;;5.40;;
4422;SDS011;2224;49.814;8.650;2022-12-07T15:35:17;6.03;;;4.60;;
4422;SDS011;2224;49.814;8.650;2022-12-07T15:37:42;3.93;;;3.40;;
4422;SDS011;2224;49.814;8.650;2022-12-07T15:40:08;3.70;;;3.20;;
4422;SDS011;2224;49.814;8.650;2022-12-07T15:42:37;4.93;;;4.30;;
4422;SDS011;2224;49.814;8.650;2022-12-07T15:45:03;7.50;;;5.30;;
4422;SDS011;2224;49.814;8.650;2022-12-07T15:47:30;6.63;;;5.90;;
4422;SDS011;2224;49.814;8.650;2022-12-07T15:49:56;10.10;;;5.57;;
4422;SDS011;2224;49.814;8.650;2022-12-07T15:52:21;10.03;;;5.30;;
4422;SDS011;2224;49.814;8.650;2022-12-07T15:54:46;7.50;;;6.17;;
4422;SDS011;2224;49.814;8.650;2022-12-07T15:57:12;6.00;;;5.23;;
4422;SDS011;2224;49.814;8.650;2022-12-07T15:59:38;6.93;;;5.10;;
4422;SDS011;2224;49.814;8.650;2022-12-07T16:02:03;9.60;;;6.00;;
4422;SDS011;2224;49.814;8.650;2022-12-07T16:04:28;10.43;;;7.20;;
4422;SDS011;2224;49.814;8.650;2022-12-07T16:06:54;4.93;;;4.43;;
4422;SDS011;2224;49.814;8.650;2022-12-07T16:09:19;5.67;;;4.80;;
4422;SDS011;2224;49.814;8.650;2022-12-07T16:11:45;15.20;;;7.97;;
4422;SDS011;2224;49.814;8.650;2022-12-07T16:14:11;10.80;;;6.60;;
4422;SDS011;2224;49.814;8.650;2022-12-07T16:16:36;9.10;;;5.10;;
4422;SDS011;2224;49.814;8.650;2022-12-07T16:19:01;6.23;;;4.60;;
4422;SDS011;2224;49.814;8.650;2022-12-07T16:24:59;8.33;;;5.90;;
4422;SDS011;2224;49.814;8.650;2022-12-07T16:27:24;7.97;;;4.90;;
4422;SDS011;2224;49.814;8.650;2022-12-07T16:29:50;6.50;;;4.60;;
4422;SDS011;2224;49.814;8.650;2022-12-07T16:32:15;8.07;;;6.57;;
4422;SDS011;2224;49.814;8.650;2022-12-07T16:34:40;9.63;;;6.90;;
4422;SDS011;2224;49.814;8.650;2022-12-07T16:37:06;9.20;;;6.87;;
4422;SDS011;2224;49.814;8.650;2022-12-07T16:39:32;7.80;;;5.90;;
4422;SDS011;2224;49.814;8.650;2022-12-07T16:41:57;6.63;;;4.83;;
4422;SDS011;2224;49.814;8.650;2022-12-07T16:44:23;5.03;;;4.50;;
4422;SDS011;2224;49.814;8.650;2022-12-07T16:46:48;5.50;;;4.53;;
4422;SDS011;2224;49.814;8.650;2022-12-07T16:49:14;5.87;;;4.10;;
4422;SDS011;2224;49.814;8.650;2022-12-07T16:51:40;3.87;;;2.93;;
4422;SDS011;2224;49.814;8.650;2022-12-07T16:54:09;6.77;;;3.47;;
4422;SDS011;2224;49.814;8.650;2022-12-07T16:56:35;5.40;;;3.80;;
4422;SDS011;2224;49.814;8.650;2022-12-07T16:59:00;4.00;;;3.67;;
4422;SDS011;2224;49.814;8.650;2022-12-07T17:01:26;5.40;;;3.83;;
4422;SDS011;2224;49.814;8.650;2022-12-07T17:03:54;4.77;;;4.07;;
4422;SDS011;2224;49.814;8.650;2022-12-07T17:06:21;5.00;;;3.60;;
4422;SDS011;2224;49.814;8.650;2022-12-07T17:08:49;6.17;;;3.80;;
4422;SDS011;2224;49.814;8.650;2022-12-07T17:11:19;4.47;;;3.60;;
4422;SDS011;2224;49.814;8.650;2022-12-07T17:13:45;6.30;;;4.50;;
4422;SDS011;2224;49.814;8.650;2022-12-07T17:16:30;5.10;;;4.57;;
4422;SDS011;2224;49.814;8.650;2022-12-07T17:18:55;6.67;;;4.97;;
4422;SDS011;2224;49.814;8.650;2022-12-07T17:21:21;9.60;;;7.60;;
4422;SDS011;2224;49.814;8.650;2022-12-07T17:23:46;16.70;;;10.10;;
4422;SDS011;2224;49.814;8.650;2022-12-07T17:26:13;21.50;;;12.73;;
4422;SDS011;2224;49.814;8.650;2022-12-07T17:28:40;17.57;;;12.33;;
4422;SDS011;2224;49.814;8.650;2022-12-07T17:31:07;14.37;;;10.43;;
4422;SDS011;2224;49.814;8.650;2022-12-07T17:33:33;18.80;;;11.40;;
4422;SDS011;2224;49.814;8.650;2022-12-07T17:35:59;15.90;;;11.10;;
4422;SDS011;2224;49.814;8.650;2022-12-07T17:38:25;11.53;;;8.93;;
4422;SDS011;2224;49.814;8.650;2022-12-07T17:40:50;11.20;;;8.37;;